Time;durP1;ratioP1;P1;durP2;ratioP2;P2;SDS_P1;SDS_P2;PMS_P1;PMS_P2;Temp;Humidity;BMP_temperature;BMP_pressure;BME280_temperature;BME280_humidity;BME280_pressure;Samples;Min_cycle;Max_cycle;Signal;HPM_P1;HPM_P2
2022/10/22 00:02:14;;;;;;;;;;;14.00;99.90;;;;;;5081704;28;20234;-72
2022/10/22 00:04:41;;;;;;;;;;;14.00;99.90;;;;;;5075492;28;19956;-72
2022/10/22 00:07:09;;;;;;;;;;;13.90;99.90;;;;;;5069510;28;19925;-72
2022/10/22 00:09:36;;;;;;;;;;;14.00;99.90;;;;;;5076640;28;20226;-71
2022/10/22 00:12:03;;;;;;;;;;;14.00;99.90;;;;;;5076028;28;19984;-72
2022/10/22 00:14:29;;;;;;;;;;;14.00;99.90;;;;;;5076750;28;19920;-72
2022/10/22 00:16:59;;;;;;;;;;;13.90;99.90;;;;;;5068537;28;19988;-71
2022/10/22 00:19:26;;;;;;;;;;;13.90;99.90;;;;;;5062976;28;19920;-72
2022/10/22 00:21:53;;;;;;;;;;;14.00;99.90;;;;;;5080359;28;19920;-71
2022/10/22 00:24:20;;;;;;;;;;;14.00;99.90;;;;;;5069896;28;19993;-73
2022/10/22 00:26:47;;;;;;;;;;;14.00;99.90;;;;;;5067850;28;19928;-71
2022/10/22 00:29:14;;;;;;;;;;;14.00;99.90;;;;;;5079056;28;20023;-72
2022/10/22 00:31:40;;;;;;;;;;;13.90;99.90;;;;;;5079065;28;19963;-72
2022/10/22 00:34:07;;;;;;;;;;;13.90;99.90;;;;;;5065548;28;19943;-71
2022/10/22 00:36:33;;;;;;;;;;;13.90;99.90;;;;;;5071319;28;19985;-74
2022/10/22 00:39:00;;;;;;;;;;;13.90;99.90;;;;;;5080809;28;19984;-72
2022/10/22 00:41:28;;;;;;;;;;;13.90;99.90;;;;;;5067962;28;19928;-72
2022/10/22 00:43:56;;;;;;;;;;;13.80;99.90;;;;;;5063565;28;19920;-71
2022/10/22 00:46:22;;;;;;;;;;;13.80;99.90;;;;;;5065178;28;20196;-72
2022/10/22 00:48:49;;;;;;;;;;;13.90;99.90;;;;;;5063246;28;19927;-72
2022/10/22 00:51:16;;;;;;;;;;;13.80;99.90;;;;;;5082424;28;19920;-73
2022/10/22 00:53:45;;;;;;;;;;;13.80;99.90;;;;;;5062363;28;19984;-74
2022/10/22 00:56:11;;;;;;;;;;;13.70;99.90;;;;;;5048357;28;19921;-72
2022/10/22 00:58:43;;;;;;;;;;;13.70;99.90;;;;;;5077308;28;20180;-73
2022/10/22 01:01:13;;;;;;;;;;;13.70;99.90;;;;;;5062655;28;20276;-72
2022/10/22 01:03:40;;;;;;;;;;;13.70;99.90;;;;;;5076250;28;19999;-70
2022/10/22 01:06:07;;;;;;;;;;;13.70;99.90;;;;;;5081547;28;19935;-72
2022/10/22 01:08:39;;;;;;;;;;;13.70;99.90;;;;;;5074788;28;20299;-72
2022/10/22 01:11:11;;;;;;;;;;;13.60;99.90;;;;;;5081712;28;19927;-71
2022/10/22 01:13:43;;;;;;;;;;;13.60;99.90;;;;;;5068411;28;19920;-72
2022/10/22 01:16:11;;;;;;;;;;;13.60;99.90;;;;;;5072105;28;20246;-72
2022/10/22 01:18:43;;;;;;;;;;;13.50;99.90;;;;;;5084250;28;19982;-73
2022/10/22 01:21:14;;;;;;;;;;;13.50;99.90;;;;;;5078827;28;19928;-74
2022/10/22 01:23:51;;;;;;;;;;;13.60;99.90;;;;;;5068747;28;19927;-73
2022/10/22 01:26:22;;;;;;;;;;;13.50;99.90;;;;;;5073928;28;19920;-74
2022/10/22 01:28:54;;;;;;;;;;;13.50;99.90;;;;;;5081069;28;19942;-74
2022/10/22 01:31:21;;;;;;;;;;;13.50;99.90;;;;;;5083127;28;20147;-73
2022/10/22 01:33:49;;;;;;;;;;;13.50;99.90;;;;;;5074123;28;19920;-74
2022/10/22 01:36:16;;;;;;;;;;;13.50;99.90;;;;;;5072393;28;19927;-73
2022/10/22 01:38:44;;;;;;;;;;;13.40;99.90;;;;;;5078820;28;19920;-72
2022/10/22 01:41:11;;;;;;;;;;;13.40;99.90;;;;;;5080509;28;19974;-71
2022/10/22 01:43:39;;;;;;;;;;;13.40;99.90;;;;;;5084436;28;19921;-72
2022/10/22 01:46:10;;;;;;;;;;;13.40;99.90;;;;;;5083815;28;20204;-72
2022/10/22 01:48:44;;;;;;;;;;;13.40;99.90;;;;;;5081551;28;19920;-71
2022/10/22 01:51:19;;;;;;;;;;;13.30;99.90;;;;;;5082149;28;19920;-72
2022/10/22 01:53:50;;;;;;;;;;;13.30;99.90;;;;;;5064816;28;20112;-73
2022/10/22 01:56:22;;;;;;;;;;;13.30;99.90;;;;;;5071076;28;19921;-71
2022/10/22 01:58:53;;;;;;;;;;;13.30;99.90;;;;;;5084797;28;19920;-73
2022/10/22 02:01:24;;;;;;;;;;;13.30;99.90;;;;;;5079300;28;19983;-73
2022/10/22 02:03:55;;;;;;;;;;;13.30;99.90;;;;;;5068171;28;19920;-73
2022/10/22 02:06:23;;;;;;;;;;;13.30;99.90;;;;;;5071115;28;19920;-73
2022/10/22 02:08:51;;;;;;;;;;;13.30;99.90;;;;;;5065360;28;19996;-73
2022/10/22 02:11:17;;;;;;;;;;;13.30;99.90;;;;;;5067662;28;19920;-73
2022/10/22 02:13:46;;;;;;;;;;;13.30;99.90;;;;;;5081251;28;19987;-73
2022/10/22 02:16:14;;;;;;;;;;;13.30;99.90;;;;;;5066908;28;19921;-73
2022/10/22 02:18:45;;;;;;;;;;;13.30;99.90;;;;;;5065302;28;20123;-73
2022/10/22 02:21:11;;;;;;;;;;;13.30;99.90;;;;;;5070625;28;19958;-73
2022/10/22 02:23:38;;;;;;;;;;;13.30;99.90;;;;;;5064858;28;19921;-73
2022/10/22 02:26:07;;;;;;;;;;;13.30;99.90;;;;;;5071139;28;20113;-74
2022/10/22 02:28:37;;;;;;;;;;;13.20;99.90;;;;;;5067405;28;19921;-73
2022/10/22 02:31:06;;;;;;;;;;;13.20;99.90;;;;;;5072433;28;19921;-73
2022/10/22 02:33:35;;;;;;;;;;;13.20;99.90;;;;;;5074877;28;19927;-73
2022/10/22 02:36:03;;;;;;;;;;;13.10;99.90;;;;;;5073499;28;20093;-72
2022/10/22 02:38:30;;;;;;;;;;;13.10;99.90;;;;;;5075098;28;20260;-73
2022/10/22 02:40:57;;;;;;;;;;;13.10;99.90;;;;;;5074394;28;19942;-73
2022/10/22 02:43:24;;;;;;;;;;;13.10;99.90;;;;;;5082642;28;19920;-72
2022/10/22 02:45:50;;;;;;;;;;;13.10;99.90;;;;;;5073897;28;20227;-72
2022/10/22 02:48:17;;;;;;;;;;;13.00;99.90;;;;;;5068736;28;19920;-72
2022/10/22 02:50:44;;;;;;;;;;;13.00;99.90;;;;;;5071874;28;20115;-72
2022/10/22 02:53:12;;;;;;;;;;;13.00;99.90;;;;;;5072915;28;19988;-72
2022/10/22 02:55:38;;;;;;;;;;;13.10;99.90;;;;;;5075436;28;19926;-72
2022/10/22 02:58:05;;;;;;;;;;;13.10;99.90;;;;;;5079305;28;19927;-72
2022/10/22 03:00:31;;;;;;;;;;;13.10;99.90;;;;;;5076179;28;20116;-72
2022/10/22 03:02:58;;;;;;;;;;;13.00;99.90;;;;;;5083442;28;19921;-73
2022/10/22 03:05:24;;;;;;;;;;;13.00;99.90;;;;;;5072571;28;19927;-73
2022/10/22 03:07:51;;;;;;;;;;;13.00;99.90;;;;;;5076901;28;19920;-73
2022/10/22 03:10:19;;;;;;;;;;;13.00;99.90;;;;;;5083555;28;19936;-72
2022/10/22 03:12:46;;;;;;;;;;;13.00;99.90;;;;;;5070160;28;19920;-73
2022/10/22 03:15:12;;;;;;;;;;;13.00;99.90;;;;;;5076552;28;19983;-72
2022/10/22 03:17:39;;;;;;;;;;;13.00;99.90;;;;;;5069837;28;19986;-73
2022/10/22 03:20:06;;;;;;;;;;;12.90;99.90;;;;;;5070015;28;19924;-72
2022/10/22 03:22:33;;;;;;;;;;;12.90;99.90;;;;;;5066324;28;20115;-72
2022/10/22 03:25:02;;;;;;;;;;;13.00;99.90;;;;;;5074601;28;20135;-72
2022/10/22 03:27:30;;;;;;;;;;;12.90;99.90;;;;;;5066911;28;19927;-72
2022/10/22 03:29:58;;;;;;;;;;;12.90;99.90;;;;;;5082949;28;20242;-72
2022/10/22 03:32:25;;;;;;;;;;;13.00;99.90;;;;;;5063367;28;19927;-72
2022/10/22 03:34:51;;;;;;;;;;;13.00;99.90;;;;;;5066600;28;19963;-72
2022/10/22 03:37:18;;;;;;;;;;;12.90;99.90;;;;;;5069831;28;20051;-72
2022/10/22 03:39:45;;;;;;;;;;;12.90;99.90;;;;;;5083187;28;19920;-72
2022/10/22 03:42:12;;;;;;;;;;;12.90;99.90;;;;;;5066872;28;19927;-72
2022/10/22 03:44:40;;;;;;;;;;;12.90;99.90;;;;;;5080149;28;19974;-72
2022/10/22 03:47:07;;;;;;;;;;;12.90;99.90;;;;;;5065012;28;20000;-72
2022/10/22 03:49:34;;;;;;;;;;;12.90;99.90;;;;;;5081448;28;19920;-72
2022/10/22 03:52:04;;;;;;;;;;;12.80;99.90;;;;;;5072744;28;19920;-72
2022/10/22 03:54:31;;;;;;;;;;;12.80;99.90;;;;;;5072439;28;19927;-72
2022/10/22 03:56:57;;;;;;;;;;;12.70;99.90;;;;;;5078259;28;19927;-72
2022/10/22 03:59:24;;;;;;;;;;;12.70;99.90;;;;;;5064649;28;19927;-72
2022/10/22 04:01:52;;;;;;;;;;;12.60;99.90;;;;;;5080636;28;19927;-72
2022/10/22 04:04:19;;;;;;;;;;;12.60;99.90;;;;;;5063546;28;19921;-72
2022/10/22 04:06:45;;;;;;;;;;;12.60;99.90;;;;;;5081666;28;19984;-72
2022/10/22 04:09:12;;;;;;;;;;;12.60;99.90;;;;;;5078077;28;20115;-72
2022/10/22 04:11:38;;;;;;;;;;;12.60;99.90;;;;;;5064525;28;19980;-73
2022/10/22 04:14:05;;;;;;;;;;;12.60;99.90;;;;;;5066837;28;19942;-72
2022/10/22 04:16:32;;;;;;;;;;;12.50;99.90;;;;;;5077315;28;19920;-72
2022/10/22 04:19:00;;;;;;;;;;;12.50;99.90;;;;;;5075521;28;19927;-73
2022/10/22 04:21:26;;;;;;;;;;;12.50;99.90;;;;;;5069211;28;19928;-72
2022/10/22 04:23:53;;;;;;;;;;;12.50;99.90;;;;;;5076487;28;20230;-72
2022/10/22 04:26:20;;;;;;;;;;;12.50;99.90;;;;;;5073037;28;19987;-72
2022/10/22 04:28:47;;;;;;;;;;;12.40;99.90;;;;;;5074081;28;20030;-73
2022/10/22 04:31:15;;;;;;;;;;;12.40;99.90;;;;;;5062165;28;19927;-72
2022/10/22 04:33:42;;;;;;;;;;;12.40;99.90;;;;;;5066666;28;19920;-72
2022/10/22 04:36:11;;;;;;;;;;;12.40;99.90;;;;;;5082263;28;20123;-73
2022/10/22 04:38:38;;;;;;;;;;;12.40;99.90;;;;;;5071069;28;19952;-72
2022/10/22 04:41:09;;;;;;;;;;;12.40;99.90;;;;;;5076242;28;20115;-72
2022/10/22 04:43:35;;;;;;;;;;;12.40;99.90;;;;;;5071438;28;19927;-72
2022/10/22 04:46:02;;;;;;;;;;;12.30;99.90;;;;;;5068078;28;20004;-72
2022/10/22 04:48:28;;;;;;;;;;;12.40;99.90;;;;;;5073414;28;19920;-71
2022/10/22 04:50:56;;;;;;;;;;;12.30;99.90;;;;;;5071598;28;19920;-72
2022/10/22 04:53:24;;;;;;;;;;;12.30;99.90;;;;;;5074635;28;19920;-72
2022/10/22 04:55:51;;;;;;;;;;;12.30;99.90;;;;;;5082609;28;20178;-71
2022/10/22 04:58:17;;;;;;;;;;;12.30;99.90;;;;;;5073741;28;19920;-72
2022/10/22 05:00:44;;;;;;;;;;;12.30;99.90;;;;;;5066298;28;20275;-71
2022/10/22 05:03:11;;;;;;;;;;;12.30;99.90;;;;;;5075793;28;19927;-72
2022/10/22 05:05:37;;;;;;;;;;;12.30;99.90;;;;;;5080852;28;19980;-72
2022/10/22 05:08:04;;;;;;;;;;;12.30;99.90;;;;;;5075248;28;19921;-72
2022/10/22 05:10:32;;;;;;;;;;;12.30;99.90;;;;;;5085810;28;20212;-72
2022/10/22 05:12:58;;;;;;;;;;;12.30;99.90;;;;;;5073431;28;19927;-72
2022/10/22 05:15:25;;;;;;;;;;;12.30;99.90;;;;;;5074700;28;20292;-72
2022/10/22 05:17:52;;;;;;;;;;;12.40;99.90;;;;;;5073853;28;19929;-72
2022/10/22 05:20:18;;;;;;;;;;;12.40;99.90;;;;;;5077230;28;19983;-72
2022/10/22 05:22:45;;;;;;;;;;;12.30;99.90;;;;;;5080945;28;19928;-73
2022/10/22 05:25:12;;;;;;;;;;;12.30;99.90;;;;;;5085416;28;19920;-72
2022/10/22 05:27:39;;;;;;;;;;;12.30;99.90;;;;;;5085094;28;20208;-72
2022/10/22 05:30:06;;;;;;;;;;;12.30;99.90;;;;;;5073263;28;19927;-72
2022/10/22 05:32:34;;;;;;;;;;;12.40;99.90;;;;;;5075368;28;20234;-72
2022/10/22 05:35:01;;;;;;;;;;;12.30;99.90;;;;;;5085282;28;19920;-72
2022/10/22 05:37:27;;;;;;;;;;;12.30;99.90;;;;;;5076541;28;19984;-72
2022/10/22 05:39:54;;;;;;;;;;;12.30;99.90;;;;;;5079337;28;19987;-72
2022/10/22 05:42:20;;;;;;;;;;;12.30;99.90;;;;;;5082353;28;19992;-72
2022/10/22 05:44:49;;;;;;;;;;;12.20;99.90;;;;;;5069798;28;19943;-72
2022/10/22 05:47:16;;;;;;;;;;;12.20;99.90;;;;;;5080393;28;19927;-72
2022/10/22 05:49:42;;;;;;;;;;;12.30;99.90;;;;;;5070282;28;19995;-73
2022/10/22 05:52:09;;;;;;;;;;;12.30;99.90;;;;;;5065793;28;19920;-72
2022/10/22 05:54:36;;;;;;;;;;;12.30;99.90;;;;;;5066554;28;19980;-72
2022/10/22 05:57:02;;;;;;;;;;;12.30;99.90;;;;;;5080196;28;19987;-72
2022/10/22 05:59:29;;;;;;;;;;;12.30;99.90;;;;;;5083430;28;19920;-72
2022/10/22 06:01:57;;;;;;;;;;;12.30;99.90;;;;;;5082428;28;19920;-72
2022/10/22 06:04:23;;;;;;;;;;;12.20;99.90;;;;;;5080505;28;19929;-72
2022/10/22 06:06:51;;;;;;;;;;;12.30;99.90;;;;;;5080856;28;20283;-72
2022/10/22 06:09:20;;;;;;;;;;;12.30;99.90;;;;;;5077197;28;20171;-72
2022/10/22 06:11:46;;;;;;;;;;;12.30;99.90;;;;;;5082332;28;19943;-72
2022/10/22 06:14:13;;;;;;;;;;;12.30;99.90;;;;;;5084917;28;19920;-71
2022/10/22 06:16:40;;;;;;;;;;;12.20;99.90;;;;;;5074984;28;20106;-72
2022/10/22 06:19:09;;;;;;;;;;;12.30;99.90;;;;;;5065230;28;20258;-72
2022/10/22 06:21:36;;;;;;;;;;;12.30;99.90;;;;;;5075782;28;19921;-72
2022/10/22 06:24:02;;;;;;;;;;;12.30;99.90;;;;;;5084052;28;20113;-72
2022/10/22 06:26:29;;;;;;;;;;;12.30;99.90;;;;;;5067326;28;20238;-72
2022/10/22 06:28:56;;;;;;;;;;;12.30;99.90;;;;;;5064970;28;20003;-73
2022/10/22 06:31:23;;;;;;;;;;;12.30;99.90;;;;;;5064579;28;19920;-72
2022/10/22 06:33:50;;;;;;;;;;;12.30;99.90;;;;;;5078235;28;19952;-72
2022/10/22 06:36:19;;;;;;;;;;;12.40;99.90;;;;;;5072089;28;20171;-72
2022/10/22 06:38:45;;;;;;;;;;;12.40;99.90;;;;;;5083459;28;19921;-71
2022/10/22 06:41:13;;;;;;;;;;;12.40;99.90;;;;;;5070166;28;19983;-72
2022/10/22 06:43:40;;;;;;;;;;;12.30;99.90;;;;;;5069224;28;19984;-72
2022/10/22 06:46:09;;;;;;;;;;;12.40;99.90;;;;;;5080159;28;19943;-72
2022/10/22 06:48:36;;;;;;;;;;;12.40;99.90;;;;;;5066705;28;19927;-72
2022/10/22 06:51:03;;;;;;;;;;;12.30;99.90;;;;;;5067139;28;20229;-73
2022/10/22 06:53:32;;;;;;;;;;;12.40;99.90;;;;;;5080309;28;19927;-72
2022/10/22 06:55:58;;;;;;;;;;;12.30;99.90;;;;;;5063845;28;19924;-72
2022/10/22 06:58:25;;;;;;;;;;;12.30;99.90;;;;;;5079273;28;20308;-74
2022/10/22 07:01:00;;;;;;;;;;;12.40;99.90;;;;;;5068801;28;19976;-71
2022/10/22 07:03:26;;;;;;;;;;;12.40;99.90;;;;;;5065534;28;19943;-72
2022/10/22 07:05:53;;;;;;;;;;;12.40;99.90;;;;;;5068941;28;19987;-72
2022/10/22 07:08:19;;;;;;;;;;;12.40;99.90;;;;;;5083557;28;19927;-72
2022/10/22 07:10:47;;;;;;;;;;;12.40;99.90;;;;;;5077048;28;20181;-72
2022/10/22 07:13:14;;;;;;;;;;;12.40;99.90;;;;;;5070753;28;19920;-72
2022/10/22 07:15:41;;;;;;;;;;;12.40;99.90;;;;;;5083054;28;20124;-72
2022/10/22 07:18:08;;;;;;;;;;;12.40;99.90;;;;;;5076532;28;19962;-72
2022/10/22 07:20:34;;;;;;;;;;;12.40;99.90;;;;;;5069616;28;19929;-72
2022/10/22 07:23:01;;;;;;;;;;;12.40;99.90;;;;;;5068985;28;19927;-72
2022/10/22 07:25:27;;;;;;;;;;;12.50;99.90;;;;;;5077318;28;19920;-72
2022/10/22 07:27:55;;;;;;;;;;;12.50;99.90;;;;;;5075919;28;20259;-72
2022/10/22 07:30:22;;;;;;;;;;;12.60;99.90;;;;;;5074266;28;19920;-72
2022/10/22 07:32:49;;;;;;;;;;;12.50;99.90;;;;;;5083818;28;20180;-73
2022/10/22 07:35:15;;;;;;;;;;;12.60;99.90;;;;;;5082936;28;19979;-72
2022/10/22 07:37:44;;;;;;;;;;;12.60;99.90;;;;;;5077373;28;19921;-72
2022/10/22 07:40:11;;;;;;;;;;;12.70;99.90;;;;;;5065930;28;19927;-72
2022/10/22 07:42:37;;;;;;;;;;;12.60;99.90;;;;;;5073120;28;19979;-72
2022/10/22 07:45:06;;;;;;;;;;;12.70;99.90;;;;;;5064528;28;19920;-72
2022/10/22 07:47:33;;;;;;;;;;;12.70;99.90;;;;;;5066996;28;19920;-72
2022/10/22 07:49:59;;;;;;;;;;;12.70;99.90;;;;;;5065613;28;19952;-72
2022/10/22 07:52:26;;;;;;;;;;;12.80;99.90;;;;;;5077163;28;20160;-72
2022/10/22 07:54:52;;;;;;;;;;;12.80;99.90;;;;;;5068445;28;19984;-72
2022/10/22 07:57:19;;;;;;;;;;;12.90;99.90;;;;;;5065807;28;19927;-72
2022/10/22 07:59:45;;;;;;;;;;;12.90;99.90;;;;;;5064379;28;19930;-72
2022/10/22 08:02:13;;;;;;;;;;;13.00;99.90;;;;;;5076404;28;19999;-72
2022/10/22 08:04:40;;;;;;;;;;;13.00;99.90;;;;;;5068566;28;19927;-71
2022/10/22 08:07:07;;;;;;;;;;;13.00;99.90;;;;;;5073626;28;20125;-71
2022/10/22 08:09:33;;;;;;;;;;;13.10;99.90;;;;;;5068799;28;19952;-71
2022/10/22 08:12:00;;;;;;;;;;;13.10;99.90;;;;;;5079538;28;19958;-71
2022/10/22 08:14:26;;;;;;;;;;;13.20;99.90;;;;;;5067885;28;20226;-71
2022/10/22 08:16:53;;;;;;;;;;;13.20;99.90;;;;;;5078983;28;19921;-71
2022/10/22 08:19:21;;;;;;;;;;;13.40;99.90;;;;;;5082960;28;19921;-71
2022/10/22 08:21:48;;;;;;;;;;;13.40;99.90;;;;;;5077661;28;19928;-71
2022/10/22 08:24:14;;;;;;;;;;;13.50;99.90;;;;;;5081487;28;19920;-71
2022/10/22 08:26:41;;;;;;;;;;;13.60;99.90;;;;;;5074007;28;19927;-71
2022/10/22 08:29:08;;;;;;;;;;;13.60;99.90;;;;;;5063512;28;19928;-71
2022/10/22 08:31:35;;;;;;;;;;;13.60;99.90;;;;;;5066560;28;19921;-71
2022/10/22 08:34:01;;;;;;;;;;;13.70;99.90;;;;;;5065685;28;20202;-71
2022/10/22 08:36:29;;;;;;;;;;;13.70;99.90;;;;;;5078724;28;20054;-71
2022/10/22 08:38:56;;;;;;;;;;;13.70;99.90;;;;;;5065232;28;19927;-71
2022/10/22 08:41:23;;;;;;;;;;;13.80;99.90;;;;;;5080525;28;19988;-71
2022/10/22 08:44:14;;;;;;;;;;;13.80;99.90;;;;;;5064315;28;20212;-72
2022/10/22 08:46:49;;;;;;;;;;;13.90;99.90;;;;;;5066678;28;19984;-71
2022/10/22 08:49:18;;;;;;;;;;;13.90;99.90;;;;;;5066131;28;19962;-71
2022/10/22 08:51:46;;;;;;;;;;;14.00;99.90;;;;;;5069018;28;19980;-71
2022/10/22 08:54:28;;;;;;;;;;;14.10;99.90;;;;;;5075062;28;19920;-71
2022/10/22 08:57:01;;;;;;;;;;;14.10;99.90;;;;;;5068909;28;20275;-71
2022/10/22 08:59:31;;;;;;;;;;;14.10;99.90;;;;;;5066143;28;19983;-71
2022/10/22 09:01:58;;;;;;;;;;;14.20;99.90;;;;;;5070843;28;19984;-71
2022/10/22 09:04:28;;;;;;;;;;;14.20;99.90;;;;;;5065653;28;19931;-71
2022/10/22 09:06:57;;;;;;;;;;;14.20;99.90;;;;;;5062769;28;19928;-71
2022/10/22 09:09:27;;;;;;;;;;;14.30;99.90;;;;;;5066060;28;19920;-71
2022/10/22 09:11:54;;;;;;;;;;;14.30;99.90;;;;;;5071983;28;19927;-71
2022/10/22 09:14:22;;;;;;;;;;;14.30;99.90;;;;;;5072519;28;20227;-71
2022/10/22 09:17:10;;;;;;;;;;;14.40;99.90;;;;;;5070602;28;20230;-72
2022/10/22 09:19:41;;;;;;;;;;;14.40;99.90;;;;;;5060846;28;20000;-74
2022/10/22 09:22:13;;;;;;;;;;;14.50;99.90;;;;;;5062672;28;19920;-72
2022/10/22 09:24:41;;;;;;;;;;;14.40;99.90;;;;;;5062056;28;19927;-75
2022/10/22 09:27:10;;;;;;;;;;;14.50;99.90;;;;;;5069861;28;20037;-71
2022/10/22 09:29:37;;;;;;;;;;;14.50;99.90;;;;;;5069092;28;19927;-74
2022/10/22 09:32:04;;;;;;;;;;;14.40;99.90;;;;;;5082165;28;19920;-73
2022/10/22 09:34:32;;;;;;;;;;;14.50;99.90;;;;;;5067174;28;19927;-73
2022/10/22 09:36:59;;;;;;;;;;;14.50;99.90;;;;;;5074924;28;19931;-74
2022/10/22 09:39:28;;;;;;;;;;;14.60;99.90;;;;;;5084372;28;19988;-73
2022/10/22 09:41:55;;;;;;;;;;;14.70;99.90;;;;;;5083554;28;19920;-73
2022/10/22 09:44:21;;;;;;;;;;;14.80;99.90;;;;;;5066117;28;19927;-75
2022/10/22 09:46:48;;;;;;;;;;;14.90;99.90;;;;;;5070569;28;20227;-76
2022/10/22 09:49:16;;;;;;;;;;;15.00;99.90;;;;;;5046360;28;20201;-74
2022/10/22 09:51:50;;;;;;;;;;;15.10;99.90;;;;;;5079111;28;19921;-74
2022/10/22 09:54:18;;;;;;;;;;;15.20;99.90;;;;;;5065679;28;20097;-74
2022/10/22 09:56:56;;;;;;;;;;;15.30;99.90;;;;;;5067017;28;19920;-73
2022/10/22 09:59:30;;;;;;;;;;;15.50;99.90;;;;;;5074691;28;19974;-71
2022/10/22 10:01:58;;;;;;;;;;;15.60;99.90;;;;;;5073133;28;19920;-74
2022/10/22 10:04:24;;;;;;;;;;;15.70;99.90;;;;;;5078981;28;20204;-72
2022/10/22 10:06:55;;;;;;;;;;;15.80;99.90;;;;;;5070992;28;19987;-74
2022/10/22 10:09:23;;;;;;;;;;;16.00;99.90;;;;;;5084741;28;19973;-74
2022/10/22 10:11:54;;;;;;;;;;;16.00;99.90;;;;;;5081881;28;19987;-74
2022/10/22 10:14:29;;;;;;;;;;;16.10;99.90;;;;;;5065308;28;19921;-74
2022/10/22 10:16:58;;;;;;;;;;;16.20;99.90;;;;;;5065258;28;19920;-72
2022/10/22 10:19:29;;;;;;;;;;;16.30;99.90;;;;;;5065733;28;19920;-71
2022/10/22 10:22:00;;;;;;;;;;;16.40;99.90;;;;;;5066438;28;20235;-72
2022/10/22 10:24:39;;;;;;;;;;;16.50;99.90;;;;;;5070221;28;19924;-76
2022/10/22 10:27:09;;;;;;;;;;;16.60;99.90;;;;;;5067193;28;19996;-76
2022/10/22 10:29:44;;;;;;;;;;;16.60;99.90;;;;;;5081302;28;19984;-76
2022/10/22 10:32:18;;;;;;;;;;;16.70;99.90;;;;;;5077661;28;19926;-76
2022/10/22 10:34:48;;;;;;;;;;;16.90;99.90;;;;;;5069373;28;19927;-71
2022/10/22 10:37:17;;;;;;;;;;;17.00;99.90;;;;;;5064788;28;19920;-74
2022/10/22 10:39:51;;;;;;;;;;;17.20;99.90;;;;;;5068280;28;19920;-75
2022/10/22 10:42:21;;;;;;;;;;;17.30;99.90;;;;;;5064566;28;20227;-75
2022/10/22 10:44:54;;;;;;;;;;;17.40;99.90;;;;;;5076491;28;19931;-75
2022/10/22 10:47:30;;;;;;;;;;;17.40;99.90;;;;;;5066872;28;20182;-73
2022/10/22 10:50:02;;;;;;;;;;;17.50;99.90;;;;;;5078077;28;19921;-75
2022/10/22 10:52:32;;;;;;;;;;;17.60;99.90;;;;;;5064600;28;20192;-75
2022/10/22 10:55:06;;;;;;;;;;;17.70;99.90;;;;;;5069974;28;19920;-75
2022/10/22 10:57:37;;;;;;;;;;;18.00;99.90;;;;;;5078993;28;20234;-74
2022/10/22 11:00:09;;;;;;;;;;;18.00;99.90;;;;;;5083167;28;19992;-75
2022/10/22 11:02:48;;;;;;;;;;;18.10;99.90;;;;;;5079865;28;19980;-75
2022/10/22 11:05:30;;;;;;;;;;;18.10;99.90;;;;;;5074760;28;19921;-74
2022/10/22 11:07:59;;;;;;;;;;;18.20;99.90;;;;;;5066621;28;19921;-75
2022/10/22 11:10:28;;;;;;;;;;;18.30;99.90;;;;;;5064206;28;19979;-74
2022/10/22 11:12:57;;;;;;;;;;;18.50;99.90;;;;;;5068751;28;20216;-74
2022/10/22 11:15:27;;;;;;;;;;;18.60;99.90;;;;;;5066895;28;19959;-75
2022/10/22 11:17:56;;;;;;;;;;;18.80;99.90;;;;;;5081266;28;19920;-71
2022/10/22 11:20:25;;;;;;;;;;;18.90;99.90;;;;;;5078135;28;19983;-73
2022/10/22 11:22:55;;;;;;;;;;;19.00;99.90;;;;;;5081088;28;19920;-73
2022/10/22 11:25:23;;;;;;;;;;;19.00;99.90;;;;;;5080822;28;19927;-72
2022/10/22 11:27:52;;;;;;;;;;;19.10;99.90;;;;;;5079911;28;19956;-74
2022/10/22 11:30:19;;;;;;;;;;;19.20;99.90;;;;;;5068177;28;19921;-74
2022/10/22 11:32:48;;;;;;;;;;;19.30;99.90;;;;;;5065937;28;19965;-72
2022/10/22 11:35:15;;;;;;;;;;;19.30;99.90;;;;;;5078421;28;20103;-73
2022/10/22 11:37:44;;;;;;;;;;;19.20;99.90;;;;;;5077413;28;19920;-72
2022/10/22 11:40:15;;;;;;;;;;;19.10;99.90;;;;;;5064653;28;19920;-74
2022/10/22 11:42:45;;;;;;;;;;;19.00;99.90;;;;;;5077811;28;19920;-72
2022/10/22 11:45:27;;;;;;;;;;;19.10;99.90;;;;;;5065708;28;20010;-75
2022/10/22 11:47:58;;;;;;;;;;;19.10;99.90;;;;;;5073765;28;19962;-73
2022/10/22 11:50:26;;;;;;;;;;;19.20;99.90;;;;;;5069202;28;20242;-70
2022/10/22 11:53:01;;;;;;;;;;;19.40;99.90;;;;;;5080282;28;19927;-73
2022/10/22 11:55:33;;;;;;;;;;;19.50;99.90;;;;;;5074364;28;19927;-73
2022/10/22 12:01:18;;;;;;;;;;;19.90;99.90;;;;;;5064218;28;20211;-71
2022/10/22 12:03:49;;;;;;;;;;;19.90;99.90;;;;;;5064091;28;19921;-73
2022/10/22 12:06:19;;;;;;;;;;;19.90;99.90;;;;;;5067860;28;19927;-74
2022/10/22 12:08:50;;;;;;;;;;;20.00;99.90;;;;;;5079582;28;19920;-74
2022/10/22 12:11:20;;;;;;;;;;;20.10;99.90;;;;;;5064996;28;19983;-72
2022/10/22 12:14:01;;;;;;;;;;;20.10;99.90;;;;;;5074900;28;19921;-71
2022/10/22 12:16:29;;;;;;;;;;;19.90;99.90;;;;;;5064933;28;19921;-72
2022/10/22 12:19:01;;;;;;;;;;;19.90;99.90;;;;;;5070308;28;19928;-72
2022/10/22 12:21:28;;;;;;;;;;;19.90;99.90;;;;;;5079591;28;20117;-73
2022/10/22 12:23:54;;;;;;;;;;;20.10;99.90;;;;;;5069916;28;19921;-72
2022/10/22 12:26:22;;;;;;;;;;;20.10;99.90;;;;;;5081427;28;19991;-69
2022/10/22 12:28:49;;;;;;;;;;;20.20;99.90;;;;;;5082262;28;20137;-73
2022/10/22 12:31:15;;;;;;;;;;;20.10;99.90;;;;;;5080707;28;19979;-72
2022/10/22 12:33:42;;;;;;;;;;;20.00;99.90;;;;;;5077118;28;20147;-73
2022/10/22 12:36:15;;;;;;;;;;;19.90;99.90;;;;;;5069447;28;19927;-72
2022/10/22 12:38:46;;;;;;;;;;;19.80;99.90;;;;;;5081847;28;19920;-72
2022/10/22 12:41:12;;;;;;;;;;;19.80;99.90;;;;;;5063900;28;20160;-72
2022/10/22 12:43:39;;;;;;;;;;;20.10;99.90;;;;;;5062668;28;20187;-73
2022/10/22 12:46:12;;;;;;;;;;;20.30;99.90;;;;;;5073361;28;19955;-72
2022/10/22 12:48:40;;;;;;;;;;;20.40;99.90;;;;;;5068858;28;19920;-73
2022/10/22 12:51:08;;;;;;;;;;;20.70;99.90;;;;;;5072306;28;19920;-73
2022/10/22 12:53:38;;;;;;;;;;;20.90;99.90;;;;;;5082076;28;20185;-73
2022/10/22 12:56:06;;;;;;;;;;;21.00;99.90;;;;;;5070799;28;20216;-73
2022/10/22 12:58:37;;;;;;;;;;;21.30;99.90;;;;;;5076666;28;19921;-71
2022/10/22 13:01:04;;;;;;;;;;;21.40;99.90;;;;;;5072337;28;19921;-73
2022/10/22 13:03:32;;;;;;;;;;;21.40;99.90;;;;;;5062519;28;19920;-73
2022/10/22 13:06:11;;;;;;;;;;;21.50;99.90;;;;;;5075275;28;19920;-73
2022/10/22 13:08:40;;;;;;;;;;;21.60;99.90;;;;;;5066090;28;19921;-73
2022/10/22 13:11:07;;;;;;;;;;;21.70;99.90;;;;;;5068329;28;20288;-74
2022/10/22 13:13:41;;;;;;;;;;;21.60;99.90;;;;;;5066431;28;20286;-74
2022/10/22 13:16:15;;;;;;;;;;;21.50;99.90;;;;;;5077591;28;19921;-74
2022/10/22 13:18:42;;;;;;;;;;;21.50;99.90;;;;;;5066903;28;20208;-73
2022/10/22 13:21:20;;;;;;;;;;;21.60;99.90;;;;;;5066286;28;19989;-72
2022/10/22 13:23:53;;;;;;;;;;;21.60;99.90;;;;;;5082230;28;19928;-74
2022/10/22 13:26:20;;;;;;;;;;;21.50;99.90;;;;;;5064996;28;19927;-74
2022/10/22 13:28:50;;;;;;;;;;;21.30;99.90;;;;;;5067846;28;19921;-73
2022/10/22 13:31:17;;;;;;;;;;;21.30;99.90;;;;;;5082189;28;19943;-72
2022/10/22 13:33:45;;;;;;;;;;;21.40;99.90;;;;;;5067007;28;20234;-72
2022/10/22 13:36:13;;;;;;;;;;;21.30;99.90;;;;;;5068540;28;19927;-72
2022/10/22 13:38:40;;;;;;;;;;;21.00;99.90;;;;;;5081460;28;19924;-73
2022/10/22 13:41:19;;;;;;;;;;;20.90;99.90;;;;;;5068577;28;19921;-73
2022/10/22 13:43:45;;;;;;;;;;;20.90;99.90;;;;;;5064877;28;19921;-72
2022/10/22 13:46:12;;;;;;;;;;;20.80;99.90;;;;;;5066365;28;19920;-73
2022/10/22 13:48:39;;;;;;;;;;;20.70;99.90;;;;;;5073717;28;19984;-73
2022/10/22 13:51:07;;;;;;;;;;;20.60;99.90;;;;;;5071340;28;19995;-72
2022/10/22 13:53:34;;;;;;;;;;;20.70;99.90;;;;;;5071414;28;20283;-71
2022/10/22 13:56:00;;;;;;;;;;;20.90;99.90;;;;;;5064412;28;19927;-73
2022/10/22 13:58:28;;;;;;;;;;;21.10;99.90;;;;;;5067521;28;19921;-73
2022/10/22 14:00:55;;;;;;;;;;;21.20;99.90;;;;;;5064837;28;19921;-74
2022/10/22 14:03:24;;;;;;;;;;;21.30;99.90;;;;;;5068513;28;20270;-72
2022/10/22 14:05:50;;;;;;;;;;;21.30;99.90;;;;;;5075535;28;19927;-75
2022/10/22 14:08:18;;;;;;;;;;;21.30;99.90;;;;;;5085173;28;20108;-75
2022/10/22 14:10:45;;;;;;;;;;;21.30;99.90;;;;;;5074868;28;19927;-74
2022/10/22 14:13:14;;;;;;;;;;;21.30;99.90;;;;;;5067699;28;19928;-71
2022/10/22 14:15:42;;;;;;;;;;;21.30;99.90;;;;;;5065440;28;19956;-71
2022/10/22 14:18:12;;;;;;;;;;;21.40;99.90;;;;;;5073629;28;19948;-71
2022/10/22 14:20:40;;;;;;;;;;;21.40;99.90;;;;;;5072392;28;20230;-72
2022/10/22 14:23:12;;;;;;;;;;;21.50;99.90;;;;;;5074477;28;19928;-72
2022/10/22 14:25:39;;;;;;;;;;;21.50;99.90;;;;;;5074582;28;19921;-71
2022/10/22 14:28:05;;;;;;;;;;;21.60;99.90;;;;;;5064591;28;19999;-71